sensor_id;sensor_type;location;lat;lon;timestamp;pressure;altitude;pressure_sealevel;temperature
7882;BMP180;3986;41.884;23.466;2023-12-14T00:02:04;91310.00;;;2.90
7882;BMP180;3986;41.884;23.466;2023-12-14T00:04:30;91322.00;;;2.70
7882;BMP180;3986;41.884;23.466;2023-12-14T00:06:57;91310.00;;;2.90
7882;BMP180;3986;41.884;23.466;2023-12-14T00:09:25;91299.00;;;2.90
7882;BMP180;3986;41.884;23.466;2023-12-14T00:11:52;91318.00;;;3.00
7882;BMP180;3986;41.884;23.466;2023-12-14T00:14:19;91299.00;;;2.60
7882;BMP180;3986;41.884;23.466;2023-12-14T00:16:46;91318.00;;;2.30
7882;BMP180;3986;41.884;23.466;2023-12-14T00:19:14;91306.00;;;2.40
7882;BMP180;3986;41.884;23.466;2023-12-14T00:21:41;91319.00;;;2.60
7882;BMP180;3986;41.884;23.466;2023-12-14T00:24:11;91315.00;;;2.70
7882;BMP180;3986;41.884;23.466;2023-12-14T00:26:39;91336.00;;;2.70
7882;BMP180;3986;41.884;23.466;2023-12-14T00:29:06;91325.00;;;2.70
7882;BMP180;3986;41.884;23.466;2023-12-14T00:31:33;91322.00;;;2.50
7882;BMP180;3986;41.884;23.466;2023-12-14T00:34:00;91318.00;;;2.30
7882;BMP180;3986;41.884;23.466;2023-12-14T00:36:28;91322.00;;;2.60
7882;BMP180;3986;41.884;23.466;2023-12-14T00:38:55;91316.00;;;2.70
7882;BMP180;3986;41.884;23.466;2023-12-14T00:41:22;91323.00;;;2.40
7882;BMP180;3986;41.884;23.466;2023-12-14T00:43:50;91330.00;;;2.60
7882;BMP180;3986;41.884;23.466;2023-12-14T00:46:17;91320.00;;;2.60
7882;BMP180;3986;41.884;23.466;2023-12-14T00:48:44;91327.00;;;2.70
7882;BMP180;3986;41.884;23.466;2023-12-14T00:51:11;91327.00;;;2.70
7882;BMP180;3986;41.884;23.466;2023-12-14T00:53:38;91318.00;;;2.50
7882;BMP180;3986;41.884;23.466;2023-12-14T00:56:08;91320.00;;;2.50
7882;BMP180;3986;41.884;23.466;2023-12-14T00:58:35;91318.00;;;2.60
7882;BMP180;3986;41.884;23.466;2023-12-14T01:01:04;91316.00;;;2.50
7882;BMP180;3986;41.884;23.466;2023-12-14T01:03:31;91330.00;;;2.50
7882;BMP180;3986;41.884;23.466;2023-12-14T01:05:58;91318.00;;;2.40
7882;BMP180;3986;41.884;23.466;2023-12-14T01:08:25;91317.00;;;2.40
7882;BMP180;3986;41.884;23.466;2023-12-14T01:10:52;91322.00;;;1.90
7882;BMP180;3986;41.884;23.466;2023-12-14T01:13:19;91331.00;;;2.20
7882;BMP180;3986;41.884;23.466;2023-12-14T01:15:45;91311.00;;;2.20
7882;BMP180;3986;41.884;23.466;2023-12-14T01:18:14;91333.00;;;1.80
7882;BMP180;3986;41.884;23.466;2023-12-14T01:20:41;91324.00;;;1.90
7882;BMP180;3986;41.884;23.466;2023-12-14T01:23:08;91286.00;;;1.70
7882;BMP180;3986;41.884;23.466;2023-12-14T01:25:36;91308.00;;;1.50
7882;BMP180;3986;41.884;23.466;2023-12-14T01:28:03;91316.00;;;1.20
7882;BMP180;3986;41.884;23.466;2023-12-14T01:30:30;91305.00;;;1.70
7882;BMP180;3986;41.884;23.466;2023-12-14T01:32:57;91331.00;;;1.20
7882;BMP180;3986;41.884;23.466;2023-12-14T01:35:25;91319.00;;;1.60
7882;BMP180;3986;41.884;23.466;2023-12-14T01:37:54;91282.00;;;1.80
7882;BMP180;3986;41.884;23.466;2023-12-14T01:40:21;91309.00;;;1.50
7882;BMP180;3986;41.884;23.466;2023-12-14T01:42:48;91301.00;;;1.80
7882;BMP180;3986;41.884;23.466;2023-12-14T01:45:15;91313.00;;;1.70
7882;BMP180;3986;41.884;23.466;2023-12-14T01:47:42;91320.00;;;1.70
7882;BMP180;3986;41.884;23.466;2023-12-14T01:50:09;91320.00;;;1.30
7882;BMP180;3986;41.884;23.466;2023-12-14T01:52:37;91296.00;;;1.50
7882;BMP180;3986;41.884;23.466;2023-12-14T01:55:05;91287.00;;;1.60
7882;BMP180;3986;41.884;23.466;2023-12-14T01:57:32;91317.00;;;1.20
7882;BMP180;3986;41.884;23.466;2023-12-14T01:59:59;91280.00;;;1.50
7882;BMP180;3986;41.884;23.466;2023-12-14T02:02:26;91296.00;;;1.40
7882;BMP180;3986;41.884;23.466;2023-12-14T02:04:53;91278.00;;;1.50
7882;BMP180;3986;41.884;23.466;2023-12-14T02:07:20;91305.00;;;1.40
7882;BMP180;3986;41.884;23.466;2023-12-14T02:09:49;91294.00;;;1.40
7882;BMP180;3986;41.884;23.466;2023-12-14T02:12:16;91321.00;;;1.60
7882;BMP180;3986;41.884;23.466;2023-12-14T02:14:44;91307.00;;;1.60
7882;BMP180;3986;41.884;23.466;2023-12-14T02:17:11;91273.00;;;1.30
7882;BMP180;3986;41.884;23.466;2023-12-14T02:19:38;91271.00;;;1.50
7882;BMP180;3986;41.884;23.466;2023-12-14T02:22:05;91282.00;;;1.50
7882;BMP180;3986;41.884;23.466;2023-12-14T02:24:33;91305.00;;;1.50
7882;BMP180;3986;41.884;23.466;2023-12-14T02:27:00;91276.00;;;1.30
7882;BMP180;3986;41.884;23.466;2023-12-14T02:29:28;91290.00;;;1.10
7882;BMP180;3986;41.884;23.466;2023-12-14T02:31:55;91290.00;;;1.20
7882;BMP180;3986;41.884;23.466;2023-12-14T02:34:22;91301.00;;;1.10
7882;BMP180;3986;41.884;23.466;2023-12-14T02:36:50;91292.00;;;1.30
7882;BMP180;3986;41.884;23.466;2023-12-14T02:39:17;91297.00;;;1.40
7882;BMP180;3986;41.884;23.466;2023-12-14T02:41:45;91293.00;;;1.40
7882;BMP180;3986;41.884;23.466;2023-12-14T02:44:12;91305.00;;;0.90
7882;BMP180;3986;41.884;23.466;2023-12-14T02:46:40;91284.00;;;1.20
7882;BMP180;3986;41.884;23.466;2023-12-14T02:49:07;91299.00;;;1.30
7882;BMP180;3986;41.884;23.466;2023-12-14T02:51:34;91286.00;;;1.60
7882;BMP180;3986;41.884;23.466;2023-12-14T02:54:01;91303.00;;;0.80
7882;BMP180;3986;41.884;23.466;2023-12-14T02:56:28;91278.00;;;1.10
7882;BMP180;3986;41.884;23.466;2023-12-14T02:58:56;91287.00;;;1.20
7882;BMP180;3986;41.884;23.466;2023-12-14T03:01:23;91290.00;;;1.10
7882;BMP180;3986;41.884;23.466;2023-12-14T03:03:50;91277.00;;;1.00
7882;BMP180;3986;41.884;23.466;2023-12-14T03:06:17;91284.00;;;1.20
7882;BMP180;3986;41.884;23.466;2023-12-14T03:08:44;91276.00;;;0.90
7882;BMP180;3986;41.884;23.466;2023-12-14T03:11:20;91300.00;;;1.20
7882;BMP180;3986;41.884;23.466;2023-12-14T03:13:47;91265.00;;;1.20
7882;BMP180;3986;41.884;23.466;2023-12-14T03:16:16;91286.00;;;1.40
7882;BMP180;3986;41.884;23.466;2023-12-14T03:18:43;91282.00;;;1.40
7882;BMP180;3986;41.884;23.466;2023-12-14T03:21:10;91259.00;;;1.40
7882;BMP180;3986;41.884;23.466;2023-12-14T03:23:37;91287.00;;;1.40
7882;BMP180;3986;41.884;23.466;2023-12-14T03:26:04;91287.00;;;1.20
7882;BMP180;3986;41.884;23.466;2023-12-14T03:28:31;91268.00;;;1.40
7882;BMP180;3986;41.884;23.466;2023-12-14T03:30:58;91283.00;;;1.20
7882;BMP180;3986;41.884;23.466;2023-12-14T03:33:28;91292.00;;;1.30
7882;BMP180;3986;41.884;23.466;2023-12-14T03:35:55;91275.00;;;1.20
7882;BMP180;3986;41.884;23.466;2023-12-14T03:38:22;91275.00;;;1.20
7882;BMP180;3986;41.884;23.466;2023-12-14T03:40:49;91293.00;;;0.80
7882;BMP180;3986;41.884;23.466;2023-12-14T03:43:16;91267.00;;;1.00
7882;BMP180;3986;41.884;23.466;2023-12-14T03:45:43;91286.00;;;1.00
7882;BMP180;3986;41.884;23.466;2023-12-14T03:48:10;91260.00;;;0.90
7882;BMP180;3986;41.884;23.466;2023-12-14T03:50:39;91265.00;;;1.20
7882;BMP180;3986;41.884;23.466;2023-12-14T03:53:06;91278.00;;;0.80
7882;BMP180;3986;41.884;23.466;2023-12-14T03:55:33;91287.00;;;1.10
7882;BMP180;3986;41.884;23.466;2023-12-14T03:58:01;91283.00;;;1.10
7882;BMP180;3986;41.884;23.466;2023-12-14T04:00:27;91305.00;;;0.90
7882;BMP180;3986;41.884;23.466;2023-12-14T04:02:54;91286.00;;;1.10
7882;BMP180;3986;41.884;23.466;2023-12-14T04:05:22;91296.00;;;1.40
7882;BMP180;3986;41.884;23.466;2023-12-14T04:07:50;91285.00;;;1.40
7882;BMP180;3986;41.884;23.466;2023-12-14T04:10:17;91296.00;;;0.90
7882;BMP180;3986;41.884;23.466;2023-12-14T04:12:44;91292.00;;;0.90
7882;BMP180;3986;41.884;23.466;2023-12-14T04:15:11;91280.00;;;1.20
7882;BMP180;3986;41.884;23.466;2023-12-14T04:17:38;91299.00;;;0.70
7882;BMP180;3986;41.884;23.466;2023-12-14T04:20:06;91277.00;;;1.20
7882;BMP180;3986;41.884;23.466;2023-12-14T04:22:34;91311.00;;;0.80
7882;BMP180;3986;41.884;23.466;2023-12-14T04:25:02;91288.00;;;1.00
7882;BMP180;3986;41.884;23.466;2023-12-14T04:27:29;91299.00;;;1.30
7882;BMP180;3986;41.884;23.466;2023-12-14T04:29:56;91307.00;;;0.70
7882;BMP180;3986;41.884;23.466;2023-12-14T04:32:23;91290.00;;;1.10
7882;BMP180;3986;41.884;23.466;2023-12-14T04:34:50;91281.00;;;1.20
7882;BMP180;3986;41.884;23.466;2023-12-14T04:37:17;91300.00;;;1.20
7882;BMP180;3986;41.884;23.466;2023-12-14T04:39:44;91299.00;;;1.20
7882;BMP180;3986;41.884;23.466;2023-12-14T04:42:13;91293.00;;;1.20
7882;BMP180;3986;41.884;23.466;2023-12-14T04:44:40;91289.00;;;1.20
7882;BMP180;3986;41.884;23.466;2023-12-14T04:47:07;91309.00;;;1.10
7882;BMP180;3986;41.884;23.466;2023-12-14T04:49:34;91282.00;;;1.30
7882;BMP180;3986;41.884;23.466;2023-12-14T04:52:01;91294.00;;;1.30
7882;BMP180;3986;41.884;23.466;2023-12-14T04:54:28;91288.00;;;0.90
7882;BMP180;3986;41.884;23.466;2023-12-14T04:56:55;91270.00;;;1.20
7882;BMP180;3986;41.884;23.466;2023-12-14T04:59:24;91291.00;;;1.40
7882;BMP180;3986;41.884;23.466;2023-12-14T05:01:51;91293.00;;;0.90
7882;BMP180;3986;41.884;23.466;2023-12-14T05:04:18;91249.00;;;1.10
7882;BMP180;3986;41.884;23.466;2023-12-14T05:06:45;91274.00;;;1.10
7882;BMP180;3986;41.884;23.466;2023-12-14T05:09:12;91293.00;;;0.90
7882;BMP180;3986;41.884;23.466;2023-12-14T05:11:39;91254.00;;;1.00
7882;BMP180;3986;41.884;23.466;2023-12-14T05:14:07;91260.00;;;0.60
7882;BMP180;3986;41.884;23.466;2023-12-14T05:16:35;91278.00;;;0.90
7882;BMP180;3986;41.884;23.466;2023-12-14T05:19:02;91253.00;;;0.90
7882;BMP180;3986;41.884;23.466;2023-12-14T05:21:29;91236.00;;;0.90
7882;BMP180;3986;41.884;23.466;2023-12-14T05:23:56;91279.00;;;0.70
7882;BMP180;3986;41.884;23.466;2023-12-14T05:26:23;91245.00;;;1.00
7882;BMP180;3986;41.884;23.466;2023-12-14T05:28:50;91255.00;;;0.80
7882;BMP180;3986;41.884;23.466;2023-12-14T05:31:17;91245.00;;;1.00
7882;BMP180;3986;41.884;23.466;2023-12-14T05:33:46;91264.00;;;1.40
7882;BMP180;3986;41.884;23.466;2023-12-14T05:36:13;91249.00;;;1.60
7882;BMP180;3986;41.884;23.466;2023-12-14T05:38:41;91242.00;;;1.20
7882;BMP180;3986;41.884;23.466;2023-12-14T05:41:08;91266.00;;;1.40
7882;BMP180;3986;41.884;23.466;2023-12-14T05:43:35;91254.00;;;1.00
7882;BMP180;3986;41.884;23.466;2023-12-14T05:46:03;91260.00;;;1.30
7882;BMP180;3986;41.884;23.466;2023-12-14T05:48:30;91256.00;;;1.40
7882;BMP180;3986;41.884;23.466;2023-12-14T05:51:00;91267.00;;;1.60
7882;BMP180;3986;41.884;23.466;2023-12-14T05:53:27;91284.00;;;1.30
7882;BMP180;3986;41.884;23.466;2023-12-14T05:55:54;91261.00;;;1.50
7882;BMP180;3986;41.884;23.466;2023-12-14T05:58:21;91271.00;;;1.50
7882;BMP180;3986;41.884;23.466;2023-12-14T06:00:48;91278.00;;;1.40
7882;BMP180;3986;41.884;23.466;2023-12-14T06:03:15;91288.00;;;1.10
7882;BMP180;3986;41.884;23.466;2023-12-14T06:05:42;91279.00;;;1.50
7882;BMP180;3986;41.884;23.466;2023-12-14T06:08:11;91282.00;;;1.50
7882;BMP180;3986;41.884;23.466;2023-12-14T06:10:38;91283.00;;;1.70
7882;BMP180;3986;41.884;23.466;2023-12-14T06:13:06;91291.00;;;1.50
7882;BMP180;3986;41.884;23.466;2023-12-14T06:15:36;91287.00;;;1.50
7882;BMP180;3986;41.884;23.466;2023-12-14T06:18:03;91279.00;;;1.60
7882;BMP180;3986;41.884;23.466;2023-12-14T06:20:30;91269.00;;;1.80
7882;BMP180;3986;41.884;23.466;2023-12-14T06:22:57;91300.00;;;1.90
7882;BMP180;3986;41.884;23.466;2023-12-14T06:25:26;91310.00;;;1.50
7882;BMP180;3986;41.884;23.466;2023-12-14T06:27:53;91275.00;;;1.80
7882;BMP180;3986;41.884;23.466;2023-12-14T06:30:20;91261.00;;;2.00
7882;BMP180;3986;41.884;23.466;2023-12-14T06:32:47;91281.00;;;2.20
7882;BMP180;3986;41.884;23.466;2023-12-14T06:35:14;91319.00;;;2.00
7882;BMP180;3986;41.884;23.466;2023-12-14T06:37:41;91274.00;;;2.30
7882;BMP180;3986;41.884;23.466;2023-12-14T06:40:09;91267.00;;;2.40
7882;BMP180;3986;41.884;23.466;2023-12-14T06:42:37;91288.00;;;2.10
7882;BMP180;3986;41.884;23.466;2023-12-14T06:45:06;91299.00;;;1.90
7882;BMP180;3986;41.884;23.466;2023-12-14T06:47:33;91300.00;;;2.20
7882;BMP180;3986;41.884;23.466;2023-12-14T06:50:00;91301.00;;;1.90
7882;BMP180;3986;41.884;23.466;2023-12-14T06:52:27;91305.00;;;2.10
7882;BMP180;3986;41.884;23.466;2023-12-14T06:54:54;91322.00;;;1.70
7882;BMP180;3986;41.884;23.466;2023-12-14T06:57:22;91295.00;;;1.90
7882;BMP180;3986;41.884;23.466;2023-12-14T06:59:50;91315.00;;;2.10
7882;BMP180;3986;41.884;23.466;2023-12-14T07:02:17;91308.00;;;2.00
7882;BMP180;3986;41.884;23.466;2023-12-14T07:04:44;91312.00;;;2.40
7882;BMP180;3986;41.884;23.466;2023-12-14T07:07:11;91338.00;;;2.20
7882;BMP180;3986;41.884;23.466;2023-12-14T07:09:38;91309.00;;;2.20
7882;BMP180;3986;41.884;23.466;2023-12-14T07:12:06;91334.00;;;2.20
7882;BMP180;3986;41.884;23.466;2023-12-14T07:14:33;91317.00;;;2.20
7882;BMP180;3986;41.884;23.466;2023-12-14T07:17:02;91323.00;;;2.60
7882;BMP180;3986;41.884;23.466;2023-12-14T07:19:29;91334.00;;;2.60
7882;BMP180;3986;41.884;23.466;2023-12-14T07:21:57;91328.00;;;2.80
7882;BMP180;3986;41.884;23.466;2023-12-14T07:24:24;91327.00;;;3.00
7882;BMP180;3986;41.884;23.466;2023-12-14T07:26:51;91318.00;;;3.20
7882;BMP180;3986;41.884;23.466;2023-12-14T07:29:18;91327.00;;;2.50
7882;BMP180;3986;41.884;23.466;2023-12-14T07:31:45;91340.00;;;2.80
7882;BMP180;3986;41.884;23.466;2023-12-14T07:34:14;91332.00;;;2.50
7882;BMP180;3986;41.884;23.466;2023-12-14T07:36:41;91330.00;;;2.60
7882;BMP180;3986;41.884;23.466;2023-12-14T07:39:07;91316.00;;;2.80
7882;BMP180;3986;41.884;23.466;2023-12-14T07:41:35;91342.00;;;3.30
7882;BMP180;3986;41.884;23.466;2023-12-14T07:44:02;91348.00;;;2.60
7882;BMP180;3986;41.884;23.466;2023-12-14T07:46:30;91341.00;;;3.00
7882;BMP180;3986;41.884;23.466;2023-12-14T07:48:57;91348.00;;;3.30
7882;BMP180;3986;41.884;23.466;2023-12-14T07:51:25;91333.00;;;2.90
7882;BMP180;3986;41.884;23.466;2023-12-14T07:53:53;91329.00;;;3.30
7882;BMP180;3986;41.884;23.466;2023-12-14T07:56:20;91351.00;;;3.00
7882;BMP180;3986;41.884;23.466;2023-12-14T07:58:51;91336.00;;;3.00
7882;BMP180;3986;41.884;23.466;2023-12-14T08:01:17;91340.00;;;3.60
7882;BMP180;3986;41.884;23.466;2023-12-14T08:03:46;91347.00;;;3.70
7882;BMP180;3986;41.884;23.466;2023-12-14T08:06:13;91362.00;;;3.50
7882;BMP180;3986;41.884;23.466;2023-12-14T08:08:41;91339.00;;;4.10
7882;BMP180;3986;41.884;23.466;2023-12-14T08:11:08;91334.00;;;4.00
7882;BMP180;3986;41.884;23.466;2023-12-14T08:13:35;91358.00;;;3.90
7882;BMP180;3986;41.884;23.466;2023-12-14T08:16:02;91345.00;;;3.60
7882;BMP180;3986;41.884;23.466;2023-12-14T08:18:29;91287.00;;;3.80
7882;BMP180;3986;41.884;23.466;2023-12-14T08:20:56;91330.00;;;4.10
7882;BMP180;3986;41.884;23.466;2023-12-14T08:23:24;91324.00;;;4.40
7882;BMP180;3986;41.884;23.466;2023-12-14T08:25:54;91331.00;;;4.40
7882;BMP180;3986;41.884;23.466;2023-12-14T08:28:22;91323.00;;;4.30
7882;BMP180;3986;41.884;23.466;2023-12-14T08:30:49;91338.00;;;4.50
7882;BMP180;3986;41.884;23.466;2023-12-14T08:33:16;91324.00;;;4.40
7882;BMP180;3986;41.884;23.466;2023-12-14T08:35:43;91327.00;;;4.70
7882;BMP180;3986;41.884;23.466;2023-12-14T08:38:10;91328.00;;;4.40
7882;BMP180;3986;41.884;23.466;2023-12-14T08:40:38;91348.00;;;4.60
7882;BMP180;3986;41.884;23.466;2023-12-14T08:43:07;91326.00;;;4.90
7882;BMP180;3986;41.884;23.466;2023-12-14T08:45:34;91358.00;;;4.20
7882;BMP180;3986;41.884;23.466;2023-12-14T08:48:01;91338.00;;;4.70
7882;BMP180;3986;41.884;23.466;2023-12-14T08:50:28;91332.00;;;5.20
7882;BMP180;3986;41.884;23.466;2023-12-14T08:52:55;91348.00;;;4.70
7882;BMP180;3986;41.884;23.466;2023-12-14T08:55:24;91347.00;;;5.10
7882;BMP180;3986;41.884;23.466;2023-12-14T08:57:51;91340.00;;;5.10
7882;BMP180;3986;41.884;23.466;2023-12-14T09:00:19;91327.00;;;5.30
7882;BMP180;3986;41.884;23.466;2023-12-14T09:02:47;91333.00;;;4.80
7882;BMP180;3986;41.884;23.466;2023-12-14T09:05:14;91322.00;;;5.00
7882;BMP180;3986;41.884;23.466;2023-12-14T09:07:41;91330.00;;;5.50
7882;BMP180;3986;41.884;23.466;2023-12-14T09:10:09;91322.00;;;5.70
7882;BMP180;3986;41.884;23.466;2023-12-14T09:12:36;91320.00;;;5.70
7882;BMP180;3986;41.884;23.466;2023-12-14T09:15:04;91315.00;;;4.80
7882;BMP180;3986;41.884;23.466;2023-12-14T09:17:33;91318.00;;;5.80
7882;BMP180;3986;41.884;23.466;2023-12-14T09:20:00;91309.00;;;6.20
7882;BMP180;3986;41.884;23.466;2023-12-14T09:22:28;91309.00;;;6.10
7882;BMP180;3986;41.884;23.466;2023-12-14T09:24:55;91304.00;;;6.70
7882;BMP180;3986;41.884;23.466;2023-12-14T09:27:22;91304.00;;;6.80
7882;BMP180;3986;41.884;23.466;2023-12-14T09:29:49;91295.00;;;5.90
7882;BMP180;3986;41.884;23.466;2023-12-14T09:32:16;91283.00;;;6.70
7882;BMP180;3986;41.884;23.466;2023-12-14T09:34:44;91296.00;;;7.60
7882;BMP180;3986;41.884;23.466;2023-12-14T09:37:11;91300.00;;;7.50
7882;BMP180;3986;41.884;23.466;2023-12-14T09:39:39;91286.00;;;6.80
7882;BMP180;3986;41.884;23.466;2023-12-14T09:42:07;91271.00;;;8.10
7882;BMP180;3986;41.884;23.466;2023-12-14T09:44:35;91286.00;;;7.80
7882;BMP180;3986;41.884;23.466;2023-12-14T09:47:04;91273.00;;;8.50
7882;BMP180;3986;41.884;23.466;2023-12-14T09:49:32;91278.00;;;7.60
7882;BMP180;3986;41.884;23.466;2023-12-14T09:52:01;91245.00;;;10.50
7882;BMP180;3986;41.884;23.466;2023-12-14T09:54:28;91257.00;;;13.40
7882;BMP180;3986;41.884;23.466;2023-12-14T09:56:55;91262.00;;;13.30
7882;BMP180;3986;41.884;23.466;2023-12-14T09:59:23;91242.00;;;11.80
7882;BMP180;3986;41.884;23.466;2023-12-14T10:01:50;91250.00;;;11.50
7882;BMP180;3986;41.884;23.466;2023-12-14T10:04:19;91242.00;;;9.20
7882;BMP180;3986;41.884;23.466;2023-12-14T10:06:47;91254.00;;;8.80
7882;BMP180;3986;41.884;23.466;2023-12-14T10:09:15;91247.00;;;8.80
7882;BMP180;3986;41.884;23.466;2023-12-14T10:12:02;91236.00;;;9.00
7882;BMP180;3986;41.884;23.466;2023-12-14T10:14:35;91245.00;;;9.00
7882;BMP180;3986;41.884;23.466;2023-12-14T10:17:18;91243.00;;;8.60
7882;BMP180;3986;41.884;23.466;2023-12-14T10:19:47;91262.00;;;8.40
7882;BMP180;3986;41.884;23.466;2023-12-14T10:22:15;91248.00;;;7.70
7882;BMP180;3986;41.884;23.466;2023-12-14T10:24:46;91258.00;;;7.40
7882;BMP180;3986;41.884;23.466;2023-12-14T10:27:14;91267.00;;;6.90
7882;BMP180;3986;41.884;23.466;2023-12-14T10:29:41;91253.00;;;7.60
7882;BMP180;3986;41.884;23.466;2023-12-14T10:32:10;91216.00;;;7.20
7882;BMP180;3986;41.884;23.466;2023-12-14T10:34:38;91244.00;;;6.80
7882;BMP180;3986;41.884;23.466;2023-12-14T10:37:06;91229.00;;;6.80
7882;BMP180;3986;41.884;23.466;2023-12-14T10:39:34;91155.00;;;6.70
7882;BMP180;3986;41.884;23.466;2023-12-14T10:42:04;91249.00;;;7.60
7882;BMP180;3986;41.884;23.466;2023-12-14T10:44:36;91224.00;;;7.60
7882;BMP180;3986;41.884;23.466;2023-12-14T10:47:04;91219.00;;;7.70
7882;BMP180;3986;41.884;23.466;2023-12-14T10:49:32;91245.00;;;7.00
7882;BMP180;3986;41.884;23.466;2023-12-14T10:52:01;91231.00;;;6.70
7882;BMP180;3986;41.884;23.466;2023-12-14T10:54:31;91211.00;;;7.10
7882;BMP180;3986;41.884;23.466;2023-12-14T10:56:59;91226.00;;;7.10
7882;BMP180;3986;41.884;23.466;2023-12-14T10:59:27;91229.00;;;7.00
7882;BMP180;3986;41.884;23.466;2023-12-14T11:01:55;91223.00;;;6.80
7882;BMP180;3986;41.884;23.466;2023-12-14T11:04:23;91214.00;;;7.10
7882;BMP180;3986;41.884;23.466;2023-12-14T11:06:53;91221.00;;;6.80
7882;BMP180;3986;41.884;23.466;2023-12-14T11:09:22;91223.00;;;6.70
7882;BMP180;3986;41.884;23.466;2023-12-14T11:11:56;91198.00;;;7.00
7882;BMP180;3986;41.884;23.466;2023-12-14T11:14:27;91217.00;;;7.00
7882;BMP180;3986;41.884;23.466;2023-12-14T11:16:55;91218.00;;;6.70
7882;BMP180;3986;41.884;23.466;2023-12-14T11:19:28;91191.00;;;7.10
7882;BMP180;3986;41.884;23.466;2023-12-14T11:22:12;91190.00;;;7.40
7882;BMP180;3986;41.884;23.466;2023-12-14T11:24:51;91212.00;;;7.60
7882;BMP180;3986;41.884;23.466;2023-12-14T11:27:22;91223.00;;;7.40
7882;BMP180;3986;41.884;23.466;2023-12-14T11:29:53;91224.00;;;6.50
7882;BMP180;3986;41.884;23.466;2023-12-14T11:32:20;91220.00;;;7.10
7882;BMP180;3986;41.884;23.466;2023-12-14T11:34:47;91187.00;;;7.30
7882;BMP180;3986;41.884;23.466;2023-12-14T11:37:15;91179.00;;;7.10
7882;BMP180;3986;41.884;23.466;2023-12-14T11:39:42;91205.00;;;6.70
7882;BMP180;3986;41.884;23.466;2023-12-14T11:42:10;91219.00;;;6.70
7882;BMP180;3986;41.884;23.466;2023-12-14T11:44:37;91201.00;;;7.00
7882;BMP180;3986;41.884;23.466;2023-12-14T11:47:06;91201.00;;;7.20
7882;BMP180;3986;41.884;23.466;2023-12-14T11:49:34;91214.00;;;7.10
7882;BMP180;3986;41.884;23.466;2023-12-14T11:52:02;91223.00;;;7.10
7882;BMP180;3986;41.884;23.466;2023-12-14T11:54:31;91201.00;;;7.40
7882;BMP180;3986;41.884;23.466;2023-12-14T11:57:01;91210.00;;;7.30
7882;BMP180;3986;41.884;23.466;2023-12-14T11:59:31;91226.00;;;7.20
7882;BMP180;3986;41.884;23.466;2023-12-14T12:01:59;91183.00;;;7.10
7882;BMP180;3986;41.884;23.466;2023-12-14T12:04:28;91213.00;;;7.50
7882;BMP180;3986;41.884;23.466;2023-12-14T12:07:03;91152.00;;;7.20
7882;BMP180;3986;41.884;23.466;2023-12-14T12:09:38;91216.00;;;7.30
7882;BMP180;3986;41.884;23.466;2023-12-14T12:12:07;91173.00;;;7.30
7882;BMP180;3986;41.884;23.466;2023-12-14T12:14:35;91222.00;;;7.40
7882;BMP180;3986;41.884;23.466;2023-12-14T12:17:03;91199.00;;;7.70
7882;BMP180;3986;41.884;23.466;2023-12-14T12:19:33;91216.00;;;7.70
7882;BMP180;3986;41.884;23.466;2023-12-14T12:22:01;91214.00;;;7.80
7882;BMP180;3986;41.884;23.466;2023-12-14T12:24:28;91221.00;;;7.90
7882;BMP180;3986;41.884;23.466;2023-12-14T12:26:55;91188.00;;;7.80
7882;BMP180;3986;41.884;23.466;2023-12-14T12:29:22;91194.00;;;7.70
7882;BMP180;3986;41.884;23.466;2023-12-14T12:31:49;91198.00;;;7.80
7882;BMP180;3986;41.884;23.466;2023-12-14T12:34:17;91204.00;;;7.10
7882;BMP180;3986;41.884;23.466;2023-12-14T12:36:44;91194.00;;;7.50
7882;BMP180;3986;41.884;23.466;2023-12-14T12:39:11;91196.00;;;7.60
7882;BMP180;3986;41.884;23.466;2023-12-14T12:41:38;91194.00;;;7.70
7882;BMP180;3986;41.884;23.466;2023-12-14T12:44:06;91189.00;;;8.00
7882;BMP180;3986;41.884;23.466;2023-12-14T12:46:34;91204.00;;;7.60
7882;BMP180;3986;41.884;23.466;2023-12-14T12:49:01;91185.00;;;7.90
7882;BMP180;3986;41.884;23.466;2023-12-14T12:51:28;91185.00;;;7.80
7882;BMP180;3986;41.884;23.466;2023-12-14T12:53:58;91190.00;;;7.70
7882;BMP180;3986;41.884;23.466;2023-12-14T12:56:26;91197.00;;;7.80
7882;BMP180;3986;41.884;23.466;2023-12-14T12:58:53;91190.00;;;7.70
7882;BMP180;3986;41.884;23.466;2023-12-14T13:01:20;91197.00;;;7.50
7882;BMP180;3986;41.884;23.466;2023-12-14T13:03:53;91190.00;;;7.70
7882;BMP180;3986;41.884;23.466;2023-12-14T13:06:20;91209.00;;;8.00
7882;BMP180;3986;41.884;23.466;2023-12-14T13:08:48;91204.00;;;7.70
7882;BMP180;3986;41.884;23.466;2023-12-14T13:11:16;91194.00;;;7.90
7882;BMP180;3986;41.884;23.466;2023-12-14T13:13:43;91195.00;;;7.90
7882;BMP180;3986;41.884;23.466;2023-12-14T13:16:10;91195.00;;;7.80
7882;BMP180;3986;41.884;23.466;2023-12-14T13:18:39;91212.00;;;7.60
7882;BMP180;3986;41.884;23.466;2023-12-14T13:21:07;91205.00;;;7.70
7882;BMP180;3986;41.884;23.466;2023-12-14T13:23:35;91200.00;;;7.80
7882;BMP180;3986;41.884;23.466;2023-12-14T13:26:02;91209.00;;;8.00
7882;BMP180;3986;41.884;23.466;2023-12-14T13:28:30;91106.00;;;7.90
7882;BMP180;3986;41.884;23.466;2023-12-14T13:30:57;91188.00;;;8.00
7882;BMP180;3986;41.884;23.466;2023-12-14T13:33:24;91196.00;;;7.90
7882;BMP180;3986;41.884;23.466;2023-12-14T13:35:52;91208.00;;;7.80
7882;BMP180;3986;41.884;23.466;2023-12-14T13:38:18;91194.00;;;8.10
7882;BMP180;3986;41.884;23.466;2023-12-14T13:40:45;91194.00;;;8.10
7882;BMP180;3986;41.884;23.466;2023-12-14T13:43:13;91195.00;;;8.20
7882;BMP180;3986;41.884;23.466;2023-12-14T13:45:42;91198.00;;;8.00
7882;BMP180;3986;41.884;23.466;2023-12-14T13:48:09;91192.00;;;8.20
7882;BMP180;3986;41.884;23.466;2023-12-14T13:50:36;91195.00;;;8.00
7882;BMP180;3986;41.884;23.466;2023-12-14T13:53:03;91194.00;;;8.00
7882;BMP180;3986;41.884;23.466;2023-12-14T13:55:31;91201.00;;;8.00
7882;BMP180;3986;41.884;23.466;2023-12-14T13:57:58;91205.00;;;7.80
7882;BMP180;3986;41.884;23.466;2023-12-14T14:00:26;91204.00;;;8.00
7882;BMP180;3986;41.884;23.466;2023-12-14T14:02:55;91205.00;;;8.20
7882;BMP180;3986;41.884;23.466;2023-12-14T14:05:22;91195.00;;;8.00
7882;BMP180;3986;41.884;23.466;2023-12-14T14:07:49;91190.00;;;7.80
7882;BMP180;3986;41.884;23.466;2023-12-14T14:10:17;91190.00;;;7.70
7882;BMP180;3986;41.884;23.466;2023-12-14T14:12:45;91204.00;;;7.40
7882;BMP180;3986;41.884;23.466;2023-12-14T14:15:12;91210.00;;;7.60
7882;BMP180;3986;41.884;23.466;2023-12-14T14:17:40;91219.00;;;7.50
7882;BMP180;3986;41.884;23.466;2023-12-14T14:20:09;91222.00;;;7.30
7882;BMP180;3986;41.884;23.466;2023-12-14T14:22:36;91211.00;;;7.70
7882;BMP180;3986;41.884;23.466;2023-12-14T14:25:04;91193.00;;;7.50
7882;BMP180;3986;41.884;23.466;2023-12-14T14:27:32;91204.00;;;7.50
7882;BMP180;3986;41.884;23.466;2023-12-14T14:29:59;91219.00;;;7.60
7882;BMP180;3986;41.884;23.466;2023-12-14T14:32:26;91198.00;;;7.30
7882;BMP180;3986;41.884;23.466;2023-12-14T14:34:53;91217.00;;;7.10
7882;BMP180;3986;41.884;23.466;2023-12-14T14:37:23;91211.00;;;7.10